Brive-Souillac

LFSL · Corrèze, Nouvelle-Aquitaine, 法国

罗盘
风向 的 风向 310° Brive-Souillac 11/29
风: 4 kt, 2 beaufort

4 kt

1 kt
改变
0 1.000 2.000 3.000 4.000 5.000
BKN 2.500 ft
BKN 3.200 ft
BKN 3.900 ft
METAR LFSL 090800Z AUTO 31004KT 9999 BKN025 BKN032 BKN039 05/04 Q0998 TEMPO 4000 -RA

METAR Brive-Souillac - LFSL/BVE

Brive-Souillac是,法国中的中型机场。 该机场有一条跑道: 11/29. 该领域的国际民航组织标志是LFSL 它的国际航空运输协会代码是BVE.

这份报告是针对2022年12月9日 09:00, 当地时间在Brive-Souillac进行的。

机场观察

风向为310°,速度为4 kt。

可见度为10 km 或者更多。

有碎云在2.500 ft的高度, 碎云在3.200 ft的高度 和 碎云在3.900 ft的高度。 破损或更高的上限为2.500 ft。

温度为5 °C,阵风为2 °C。 露点为4 °C,相对湿度为93%。 海平面上的气压为998 hPa (QNH)。

发展趋势

  • 暂时的

    可变方向的风很小或没有。 可见性变为4 km。 重大天气:光 雨。

白天

今天,太阳从08:20升起,在17:12降落。 这适用于Brive-Souillac,世界夏令时可能有所不同。 当地时间与世界标准时间之间的时差为+1 小时。 当前,没有夏令时有效。

公司介绍

我们没有关于这个机场的公司信息。

体会

到Vliegles.nl去找飞行课程,跳伞和其他飞行体验。 浏览页面,了解Brive-Souillac附近所有可用的活动。 你也可以使用搜索功能来寻找你所在地附近的特定飞行课程、跳伞或其他飞行体验。

跑道

Id 标题 侧风 逆风 侧风 %
11/29 115°-295° 1 kt 4 kt 26 %

逆风成分最大的方向会被突出显示,并用于横风计算。 这并不一定意味着这个方向在使用。

乌云

2.500 ft BKN 碎云
3.200 ft BKN 碎云
3.900 ft BKN 碎云

温度 & 天气

温度 5 °C
露点 4 °C
相对湿度 93%
风寒 2 °C
Kp-index 2 (0-9)

白天

日出
08:20
中午
12:46
日落
17:12 (7:55)

小工具

你想在你的网站上有一个关于Brive-Souillac的当前航空天气(METAR)的小部件吗?

显示HTML代码

我们和第三方通过cookies跟踪您在我们网站上的互联网行为。如果你继续,我们认为你同意我们的饼干政策